createdAt,value
2017-11-07T00:00:59.146Z,88.13
2017-11-07T00:03:26.688Z,88.33
2017-11-07T00:05:54.267Z,88.11
2017-11-07T00:08:22.407Z,88.05
2017-11-07T00:10:50.006Z,88.38
2017-11-07T00:13:17.578Z,88.53
2017-11-07T00:15:45.118Z,88.47
2017-11-07T00:18:12.719Z,88.38
2017-11-07T00:20:40.314Z,88.42
2017-11-07T00:23:07.851Z,88.47
2017-11-07T00:25:35.394Z,88.62
2017-11-07T00:28:02.985Z,88.57
2017-11-07T00:30:30.551Z,88.57
2017-11-07T00:32:58.093Z,88.35
2017-11-07T00:35:25.670Z,88.51
2017-11-07T00:37:53.213Z,88.53
2017-11-07T00:40:20.759Z,88.84
2017-11-07T00:42:48.339Z,88.51
2017-11-07T00:45:15.887Z,88.65
2017-11-07T00:47:43.434Z,88.64
2017-11-07T00:50:11.018Z,88.66
2017-11-07T00:52:38.566Z,88.77
2017-11-07T00:55:06.106Z,88.77
2017-11-07T00:57:33.687Z,89.11
2017-11-07T01:00:01.243Z,89.09
2017-11-07T01:02:28.787Z,88.86
2017-11-07T01:04:56.374Z,89.04
2017-11-07T01:07:23.924Z,88.85
2017-11-07T01:09:51.462Z,88.70
2017-11-07T01:12:19.043Z,88.79
2017-11-07T01:14:46.586Z,88.74
2017-11-07T01:17:14.128Z,88.72
2017-11-07T01:19:41.707Z,88.76
2017-11-07T01:22:09.259Z,88.62
2017-11-07T01:24:36.806Z,88.54
2017-11-07T01:27:04.382Z,88.56
2017-11-07T01:29:31.927Z,88.32
2017-11-07T01:31:59.479Z,88.40
2017-11-07T01:34:27.054Z,88.46
2017-11-07T01:36:54.594Z,88.59
2017-11-07T01:39:22.137Z,88.73
2017-11-07T01:41:49.774Z,88.71
2017-11-07T01:44:17.310Z,88.69
2017-11-07T01:46:44.858Z,88.96
2017-11-07T01:49:12.476Z,89.02
2017-11-07T01:51:40.023Z,89.12
2017-11-07T01:54:07.635Z,89.54
2017-11-07T01:56:35.305Z,89.62
2017-11-07T01:59:02.968Z,89.60
2017-11-07T02:01:30.643Z,89.27
2017-11-07T02:03:58.359Z,89.41
2017-11-07T02:06:26.015Z,89.37
2017-11-07T02:08:53.625Z,89.20
2017-11-07T02:11:21.332Z,89.64
2017-11-07T02:13:48.950Z,89.61
2017-11-07T02:16:16.551Z,89.34
2017-11-07T02:18:44.191Z,89.33
2017-11-07T02:21:11.807Z,89.07
2017-11-07T02:23:39.419Z,89.13
2017-11-07T02:26:07.083Z,89.22
2017-11-07T02:28:34.710Z,89.46
2017-11-07T02:31:02.375Z,89.56
2017-11-07T02:33:30.093Z,89.55
2017-11-07T02:35:57.760Z,89.79
2017-11-07T02:38:25.495Z,89.86
2017-11-07T02:40:53.290Z,89.75
2017-11-07T02:43:20.960Z,89.90
2017-11-07T02:45:48.566Z,89.99
2017-11-07T02:48:16.284Z,89.84
2017-11-07T02:50:43.896Z,89.66
2017-11-07T02:53:11.523Z,89.62
2017-11-07T02:55:39.241Z,89.44
2017-11-07T02:58:06.911Z,89.80
2017-11-07T03:00:34.619Z,89.80
2017-11-07T03:03:02.279Z,90.08
2017-11-07T03:05:29.952Z,90.31
2017-11-07T03:07:57.619Z,90.60
2017-11-07T03:10:25.275Z,90.74
2017-11-07T03:12:52.884Z,90.86
2017-11-07T03:15:20.487Z,90.82
2017-11-07T03:17:48.211Z,90.73
2017-11-07T03:20:15.823Z,90.53
2017-11-07T03:22:43.452Z,90.30
2017-11-07T03:25:11.108Z,90.11
2017-11-07T03:27:38.776Z,89.75
2017-11-07T03:30:06.394Z,89.48
2017-11-07T03:32:34.067Z,89.40
2017-11-07T03:35:01.678Z,89.75
2017-11-07T03:37:29.282Z,89.75
2017-11-07T03:39:57.011Z,89.59
2017-11-07T03:42:24.623Z,89.69
2017-11-07T03:44:52.215Z,89.58
2017-11-07T03:47:19.892Z,89.40
2017-11-07T03:49:47.497Z,89.33
2017-11-07T03:52:15.107Z,89.00
2017-11-07T03:54:42.916Z,88.72
2017-11-07T03:57:10.580Z,88.41
2017-11-07T03:59:38.187Z,87.94
2017-11-07T04:02:05.915Z,87.76
2017-11-07T04:04:33.579Z,87.60
2017-11-07T04:07:01.187Z,87.40
2017-11-07T04:09:28.939Z,87.02
2017-11-07T04:11:56.551Z,86.63
2017-11-07T04:14:24.160Z,86.28
2017-11-07T04:16:51.815Z,85.91
2017-11-07T04:19:19.427Z,86.15
2017-11-07T04:21:47.035Z,86.58
2017-11-07T04:24:14.692Z,86.74
2017-11-07T04:26:42.303Z,86.78
2017-11-07T04:29:09.968Z,86.69
2017-11-07T04:31:37.626Z,86.56
2017-11-07T04:34:05.244Z,86.53
2017-11-07T04:36:32.854Z,86.49
2017-11-07T04:39:00.514Z,86.34
2017-11-07T04:41:28.126Z,86.23
2017-11-07T04:43:55.752Z,86.43
2017-11-07T04:46:23.407Z,86.45
2017-11-07T04:48:51.012Z,86.43
2017-11-07T04:51:18.619Z,86.50
2017-11-07T04:53:46.331Z,86.50
2017-11-07T04:56:13.939Z,86.49
2017-11-07T04:58:41.543Z,87.10
2017-11-07T05:01:09.261Z,87.84
2017-11-07T05:03:36.868Z,87.96
2017-11-07T05:06:04.529Z,87.82
2017-11-07T05:08:32.236Z,87.87
2017-11-07T05:10:59.868Z,87.94
2017-11-07T05:13:27.476Z,87.96
2017-11-07T05:15:55.267Z,87.95
2017-11-07T05:18:22.867Z,88.13
2017-11-07T05:20:50.467Z,87.99
2017-11-07T05:23:18.287Z,88.09
2017-11-07T05:25:45.962Z,88.18
2017-11-07T05:28:13.630Z,88.06
2017-11-07T05:30:41.340Z,88.16
2017-11-07T05:33:08.952Z,88.21
2017-11-07T05:35:36.624Z,88.19
2017-11-07T05:38:04.331Z,88.22
2017-11-07T05:40:31.936Z,88.27
2017-11-07T05:42:59.547Z,88.44
2017-11-07T05:45:27.221Z,88.38
2017-11-07T05:47:54.864Z,88.07
2017-11-07T05:50:22.687Z,87.78
2017-11-07T05:52:50.386Z,87.88
2017-11-07T05:55:18.091Z,88.09
2017-11-07T05:57:45.695Z,88.27
2017-11-07T06:00:13.363Z,88.15
2017-11-07T06:02:41.028Z,88.40
2017-11-07T06:05:08.635Z,88.32
2017-11-07T06:07:36.304Z,87.88
2017-11-07T06:10:03.909Z,87.61
2017-11-07T06:12:31.527Z,87.27
2017-11-07T06:14:59.179Z,86.75
2017-11-07T06:17:26.792Z,87.04
2017-11-07T06:19:54.408Z,87.18
2017-11-07T06:22:22.131Z,87.16
2017-11-07T06:24:49.804Z,86.91
2017-11-07T06:27:17.472Z,87.24
2017-11-07T06:29:45.127Z,86.88
2017-11-07T06:32:12.736Z,86.69
2017-11-07T06:34:40.342Z,86.05
2017-11-07T06:37:08.003Z,86.02
2017-11-07T06:39:35.610Z,85.38
2017-11-07T06:42:03.227Z,85.47
2017-11-07T06:44:30.897Z,85.74
2017-11-07T06:46:58.568Z,85.52
2017-11-07T06:49:26.170Z,85.27
2017-11-07T06:51:53.811Z,85.66
2017-11-07T06:54:21.423Z,85.47
2017-11-07T06:56:49.027Z,85.01
2017-11-07T06:59:16.715Z,84.67
2017-11-07T07:01:44.348Z,84.30
2017-11-07T07:04:12.013Z,84.36
2017-11-07T07:06:39.651Z,84.14
2017-11-07T07:09:07.320Z,84.56
2017-11-07T07:11:34.980Z,84.58
2017-11-07T07:14:02.636Z,84.15
2017-11-07T07:16:30.243Z,83.55
2017-11-07T07:18:57.849Z,83.47
2017-11-07T07:21:25.504Z,82.51
2017-11-07T07:23:53.169Z,82.17
2017-11-07T07:26:20.772Z,81.92
2017-11-07T07:28:48.415Z,81.76
2017-11-07T07:31:16.076Z,81.40
2017-11-07T07:33:43.680Z,81.52
2017-11-07T07:36:11.347Z,81.40
2017-11-07T07:38:38.959Z,80.43
2017-11-07T07:41:06.564Z,80.14
2017-11-07T07:43:34.217Z,79.96
2017-11-07T07:46:01.881Z,78.99
2017-11-07T07:48:29.483Z,79.41
2017-11-07T07:50:57.303Z,79.26
2017-11-07T07:53:24.908Z,78.20
2017-11-07T07:55:52.523Z,77.95
2017-11-07T07:58:20.168Z,77.27
2017-11-07T08:00:47.777Z,76.18
2017-11-07T08:03:15.388Z,75.80
2017-11-07T08:05:43.127Z,75.96
2017-11-07T08:08:10.883Z,76.16
2017-11-07T08:10:38.539Z,74.91
2017-11-07T08:13:06.252Z,74.44
2017-11-07T08:15:33.926Z,73.95
2017-11-07T08:18:01.539Z,73.80
2017-11-07T08:20:29.268Z,73.10
2017-11-07T08:22:56.886Z,71.37
2017-11-07T08:25:24.548Z,70.63
2017-11-07T08:27:52.203Z,69.83
2017-11-07T08:30:19.823Z,70.13
2017-11-07T08:32:47.430Z,70.14
2017-11-07T08:35:15.088Z,70.30
2017-11-07T08:37:42.700Z,70.43
2017-11-07T08:40:10.390Z,70.26
2017-11-07T08:42:38.168Z,70.31
2017-11-07T08:45:05.865Z,69.74
2017-11-07T08:47:33.617Z,69.91
2017-11-07T08:50:01.426Z,68.97
2017-11-07T08:52:29.205Z,70.18
2017-11-07T08:54:56.984Z,69.76
2017-11-07T08:57:24.789Z,70.13
2017-11-07T08:59:52.569Z,69.23
2017-11-07T09:02:20.307Z,69.38
2017-11-07T09:04:48.125Z,68.69
2017-11-07T09:07:15.897Z,69.18
2017-11-07T09:09:44.664Z,69.58
2017-11-07T09:12:12.609Z,68.83
2017-11-07T09:14:40.393Z,69.60
2017-11-07T09:17:08.155Z,70.63
2017-11-07T09:19:36.000Z,70.27
2017-11-07T09:22:03.773Z,70.05
2017-11-07T09:24:31.558Z,69.45
2017-11-07T09:26:59.390Z,69.28
2017-11-07T09:29:27.251Z,69.61
2017-11-07T09:31:55.105Z,69.07
2017-11-07T09:34:22.937Z,70.01
2017-11-07T09:36:50.742Z,69.50
2017-11-07T09:39:18.525Z,70.40
2017-11-07T09:41:46.364Z,69.48
2017-11-07T09:44:14.133Z,69.51
2017-11-07T09:46:41.948Z,68.89
2017-11-07T09:49:09.774Z,68.99
2017-11-07T09:51:37.565Z,69.67
2017-11-07T09:54:05.366Z,69.36
2017-11-07T09:56:33.192Z,70.54
2017-11-07T09:59:00.981Z,70.26
2017-11-07T10:01:28.761Z,69.62
2017-11-07T10:03:56.592Z,69.23
2017-11-07T10:06:24.368Z,69.14
2017-11-07T10:08:52.165Z,67.87
2017-11-07T10:11:20.878Z,66.85
2017-11-07T10:13:48.793Z,66.84
2017-11-07T10:16:16.689Z,66.82
2017-11-07T10:18:44.621Z,66.02
2017-11-07T10:21:12.411Z,65.54
2017-11-07T10:23:40.201Z,64.79
2017-11-07T10:26:08.034Z,65.43
2017-11-07T10:28:35.937Z,66.24
2017-11-07T10:31:03.832Z,65.77
2017-11-07T10:33:31.790Z,66.04
2017-11-07T10:35:59.656Z,67.27
2017-11-07T10:38:27.449Z,67.57
2017-11-07T10:40:55.290Z,67.04
2017-11-07T10:43:23.204Z,65.94
2017-11-07T10:45:51.003Z,65.15
2017-11-07T10:48:18.838Z,63.80
2017-11-07T10:50:46.633Z,63.85
2017-11-07T10:53:16.444Z,63.33
2017-11-07T10:55:44.401Z,62.34
2017-11-07T10:58:12.264Z,62.38
2017-11-07T11:00:42.084Z,61.45
2017-11-07T11:03:10.048Z,61.70
2017-11-07T11:05:38.745Z,61.56
2017-11-07T11:08:06.764Z,62.95
2017-11-07T11:10:37.525Z,63.68
2017-11-07T11:13:06.114Z,63.68
2017-11-07T11:15:33.904Z,63.94
2017-11-07T11:18:01.844Z,64.23
2017-11-07T11:20:30.570Z,64.45
2017-11-07T11:22:58.474Z,63.81
2017-11-07T11:25:26.454Z,64.60
2017-11-07T11:27:54.257Z,64.81
2017-11-07T11:30:23.002Z,64.94
2017-11-07T11:32:51.766Z,63.85
2017-11-07T11:35:20.814Z,64.09
2017-11-07T11:37:48.714Z,64.48
2017-11-07T11:40:18.117Z,65.22
2017-11-07T11:42:45.914Z,65.41
2017-11-07T11:45:13.707Z,65.45
2017-11-07T11:47:41.540Z,65.78
2017-11-07T11:50:09.340Z,66.25
2017-11-07T11:52:37.122Z,66.61
2017-11-07T11:55:05.961Z,67.07
2017-11-07T11:57:35.490Z,68.38
2017-11-07T12:00:03.409Z,69.11
2017-11-07T12:02:32.087Z,69.01
2017-11-07T12:04:59.985Z,69.27
2017-11-07T12:07:28.710Z,69.28
2017-11-07T12:09:56.613Z,70.16
2017-11-07T12:12:24.528Z,69.28
2017-11-07T12:14:53.328Z,69.69
2017-11-07T12:17:21.428Z,69.08
2017-11-07T12:19:49.218Z,69.18
2017-11-07T12:22:17.009Z,69.21
2017-11-07T12:24:44.801Z,69.55
2017-11-07T12:27:12.605Z,70.03
2017-11-07T12:29:40.408Z,71.33
2017-11-07T12:32:08.174Z,71.65
2017-11-07T12:34:35.945Z,71.76
2017-11-07T12:37:03.772Z,72.15
2017-11-07T12:39:31.574Z,72.72
2017-11-07T12:41:59.365Z,73.68
2017-11-07T12:44:27.140Z,73.71
2017-11-07T12:46:55.042Z,74.19
2017-11-07T12:49:22.831Z,74.35
2017-11-07T12:52:00.549Z,74.61
2017-11-07T12:54:28.409Z,74.79
2017-11-07T12:56:56.312Z,75.23
2017-11-07T12:59:24.109Z,75.35
2017-11-07T13:01:51.994Z,75.46
2017-11-07T13:04:20.775Z,75.76
2017-11-07T13:06:48.702Z,76.04
2017-11-07T13:09:17.446Z,75.81
2017-11-07T13:11:45.241Z,76.00
2017-11-07T13:14:13.193Z,75.91
2017-11-07T13:16:41.036Z,75.97
2017-11-07T13:19:09.866Z,76.19
2017-11-07T13:21:40.110Z,75.90
2017-11-07T13:24:08.980Z,75.79
2017-11-07T13:26:36.778Z,76.12
2017-11-07T13:29:07.208Z,75.92
2017-11-07T13:31:37.252Z,75.75
2017-11-07T13:34:05.383Z,76.16
2017-11-07T13:36:34.787Z,76.15
2017-11-07T13:39:05.319Z,76.15
2017-11-07T13:41:34.228Z,76.08
2017-11-07T13:44:02.664Z,75.97
2017-11-07T13:46:31.538Z,75.87
2017-11-07T13:49:00.795Z,75.94
2017-11-07T13:51:29.788Z,76.10
2017-11-07T13:54:00.740Z,76.17
2017-11-07T13:56:32.466Z,76.41
2017-11-07T13:59:02.187Z,76.49
2017-11-07T14:01:31.682Z,76.70
2017-11-07T14:04:03.805Z,76.97
2017-11-07T14:06:42.509Z,77.15
2017-11-07T14:09:12.384Z,77.37
2017-11-07T14:11:40.667Z,77.60
2017-11-07T14:14:12.930Z,77.68
2017-11-07T14:16:44.000Z,77.74
2017-11-07T14:19:13.975Z,77.77
2017-11-07T14:21:44.720Z,78.12
2017-11-07T14:24:12.999Z,78.14
2017-11-07T14:26:42.622Z,78.61
2017-11-07T14:29:10.841Z,78.70
2017-11-07T14:31:40.219Z,78.58
2017-11-07T14:34:18.392Z,78.96
2017-11-07T14:39:23.753Z,79.86
2017-11-07T14:44:29.355Z,80.66
2017-11-07T14:46:58.606Z,81.01
2017-11-07T14:49:28.878Z,81.16
2017-11-07T14:51:59.006Z,81.13
2017-11-07T14:54:29.930Z,81.57
2017-11-07T14:57:01.340Z,82.08
2017-11-07T14:59:32.071Z,82.28
2017-11-07T15:02:02.542Z,82.40
2017-11-07T15:04:34.814Z,83.10
2017-11-07T15:07:06.607Z,83.84
2017-11-07T15:09:37.811Z,84.20
2017-11-07T15:12:07.900Z,84.31
2017-11-07T15:14:37.691Z,84.65
2017-11-07T15:19:44.339Z,85.52
2017-11-07T15:22:13.077Z,86.15
2017-11-07T15:24:43.599Z,86.10
2017-11-07T15:27:18.021Z,85.62
2017-11-07T15:29:48.639Z,85.51
2017-11-07T15:32:18.827Z,85.31
2017-11-07T15:34:48.203Z,85.41
2017-11-07T15:37:18.559Z,85.35
2017-11-07T15:39:56.582Z,85.58
2017-11-07T15:42:33.143Z,85.49
2017-11-07T15:45:05.441Z,85.50
2017-11-07T15:47:42.411Z,85.81
2017-11-07T15:50:30.149Z,86.15
2017-11-07T15:55:39.295Z,86.59
2017-11-07T15:58:12.964Z,86.70
2017-11-07T16:00:47.315Z,86.63
2017-11-07T16:03:22.846Z,86.36
2017-11-07T16:05:55.100Z,86.64
2017-11-07T16:08:25.550Z,86.68
2017-11-07T16:10:59.546Z,86.47
2017-11-07T16:13:29.240Z,86.54
2017-11-07T16:16:01.031Z,86.58
2017-11-07T16:18:35.150Z,86.59
2017-11-07T16:21:09.110Z,86.54
2017-11-07T16:23:41.389Z,86.54
2017-11-07T16:26:11.225Z,86.35
2017-11-07T16:28:42.564Z,86.32
2017-11-07T16:31:11.894Z,86.22
2017-11-07T16:33:49.133Z,86.18
2017-11-07T16:36:18.862Z,86.55
2017-11-07T16:41:24.705Z,87.08
2017-11-07T16:43:56.201Z,87.32
2017-11-07T16:46:25.581Z,87.36
2017-11-07T16:49:01.881Z,87.33
2017-11-07T16:51:33.097Z,87.05
2017-11-07T16:54:04.659Z,86.79
2017-11-07T16:56:34.423Z,86.65
2017-11-07T16:59:08.403Z,86.76
2017-11-07T17:01:39.474Z,86.88
2017-11-07T17:04:23.761Z,86.66
2017-11-07T17:09:31.578Z,86.94
2017-11-07T17:12:03.581Z,87.22
2017-11-07T17:14:39.635Z,87.31
2017-11-07T17:17:13.823Z,87.32
2017-11-07T17:19:43.547Z,87.32
2017-11-07T17:22:15.855Z,87.46
2017-11-07T17:24:47.860Z,88.05
2017-11-07T17:30:00.909Z,87.67
2017-11-07T17:32:32.146Z,87.42
2017-11-07T17:35:06.333Z,87.29
2017-11-07T17:40:18.787Z,87.48
2017-11-07T17:42:48.739Z,87.69
2017-11-07T17:45:17.385Z,87.63
2017-11-07T17:47:45.165Z,87.62
2017-11-07T17:50:12.789Z,87.62
2017-11-07T17:52:40.482Z,87.55
2017-11-07T17:55:08.186Z,87.30
2017-11-07T17:57:35.819Z,87.37
2017-11-07T18:00:03.472Z,87.34
2017-11-07T18:02:31.143Z,87.70
2017-11-07T18:04:58.844Z,87.78
2017-11-07T18:07:26.536Z,87.74
2017-11-07T18:09:54.256Z,87.93
2017-11-07T18:12:21.883Z,87.91
2017-11-07T18:14:49.503Z,87.96
2017-11-07T18:17:17.219Z,88.04
2017-11-07T18:19:44.896Z,88.10
2017-11-07T18:22:12.512Z,88.14
2017-11-07T18:24:40.243Z,88.21
2017-11-07T18:27:07.933Z,88.28
2017-11-07T18:29:35.605Z,88.26
2017-11-07T18:32:03.347Z,88.37
2017-11-07T18:34:30.989Z,88.29
2017-11-07T18:36:58.610Z,88.11
2017-11-07T18:39:26.304Z,88.14
2017-11-07T18:41:53.991Z,88.13
2017-11-07T18:44:21.625Z,88.02
2017-11-07T18:46:49.295Z,88.08
2017-11-07T18:49:16.911Z,88.08
2017-11-07T18:51:44.596Z,88.59
2017-11-07T18:54:12.283Z,88.70
2017-11-07T18:56:39.972Z,88.64
2017-11-07T18:59:07.628Z,88.47
2017-11-07T19:01:35.388Z,88.41
2017-11-07T19:04:03.012Z,88.53
2017-11-07T19:06:30.635Z,88.94
2017-11-07T19:08:58.301Z,88.89
2017-11-07T19:11:26.720Z,88.68
2017-11-07T19:13:54.347Z,88.54
2017-11-07T19:16:22.094Z,88.39
2017-11-07T19:18:49.741Z,88.19
2017-11-07T19:21:17.387Z,88.17
2017-11-07T19:23:45.055Z,88.55
2017-11-07T19:26:12.818Z,89.00
2017-11-07T19:28:40.463Z,88.87
2017-11-07T19:31:08.154Z,88.72
2017-11-07T19:33:35.823Z,88.70
2017-11-07T19:36:03.517Z,88.68
2017-11-07T19:38:31.223Z,88.67
2017-11-07T19:40:58.908Z,88.84
2017-11-07T19:43:26.539Z,88.81
2017-11-07T19:45:54.275Z,88.82
2017-11-07T19:48:21.899Z,88.87
2017-11-07T19:50:49.533Z,88.87
2017-11-07T19:53:17.197Z,88.87
2017-11-07T19:55:44.828Z,89.16
2017-11-07T19:58:12.462Z,89.11
2017-11-07T20:00:40.207Z,88.95
2017-11-07T20:03:07.911Z,88.85
2017-11-07T20:05:35.615Z,88.90
2017-11-07T20:08:03.361Z,89.05
2017-11-07T20:10:31.036Z,89.17
2017-11-07T20:12:58.722Z,88.81
2017-11-07T20:15:26.539Z,88.35
2017-11-07T20:17:54.172Z,87.99
2017-11-07T20:20:21.791Z,87.58
2017-11-07T20:22:49.471Z,86.96
2017-11-07T20:25:17.096Z,86.50
2017-11-07T20:27:44.715Z,85.86
2017-11-07T20:30:12.396Z,85.67
2017-11-07T20:32:40.016Z,85.61
2017-11-07T20:35:07.683Z,85.74
2017-11-07T20:37:35.357Z,85.51
2017-11-07T20:40:02.971Z,85.55
2017-11-07T20:42:30.587Z,85.56
2017-11-07T20:44:58.253Z,85.29
2017-11-07T20:47:25.877Z,85.03
2017-11-07T20:49:53.554Z,84.68
2017-11-07T20:52:21.276Z,84.40
2017-11-07T20:54:48.959Z,84.25
2017-11-07T20:57:16.598Z,84.37
2017-11-07T20:59:44.357Z,84.59
2017-11-07T21:02:12.048Z,84.78
2017-11-07T21:04:39.657Z,84.97
2017-11-07T21:07:07.323Z,85.30
2017-11-07T21:09:34.943Z,86.19
2017-11-07T21:12:02.557Z,86.13
2017-11-07T21:14:30.233Z,86.83
2017-11-07T21:16:57.859Z,86.71
2017-11-07T21:19:25.484Z,86.89
2017-11-07T21:21:53.307Z,87.48
2017-11-07T21:24:20.959Z,87.45
2017-11-07T21:26:48.588Z,86.99
2017-11-07T21:29:16.416Z,86.36
2017-11-07T21:31:44.039Z,86.08
2017-11-07T21:34:11.719Z,86.01
2017-11-07T21:36:39.411Z,85.99
2017-11-07T21:39:07.036Z,85.77
2017-11-07T21:41:34.652Z,85.42
2017-11-07T21:44:02.441Z,85.08
2017-11-07T21:46:30.127Z,84.75
2017-11-07T21:48:57.820Z,84.59
2017-11-07T21:51:25.475Z,84.58
2017-11-07T21:53:53.083Z,84.65
2017-11-07T21:56:20.759Z,84.63
2017-11-07T21:58:48.423Z,84.49
2017-11-07T22:01:16.048Z,84.32
2017-11-07T22:03:43.723Z,84.01
2017-11-07T22:06:11.552Z,84.17
2017-11-07T22:08:39.162Z,83.93
2017-11-07T22:11:06.845Z,83.96
2017-11-07T22:13:34.520Z,84.22
2017-11-07T22:16:02.147Z,84.52
2017-11-07T22:18:29.852Z,84.99
2017-11-07T22:20:57.519Z,85.16
2017-11-07T22:23:25.951Z,85.30
2017-11-07T22:25:53.631Z,86.06
2017-11-07T22:28:21.311Z,86.49
2017-11-07T22:30:48.935Z,86.70
2017-11-07T22:33:16.547Z,86.81
2017-11-07T22:35:44.216Z,87.31
2017-11-07T22:38:11.832Z,86.88
2017-11-07T22:40:39.447Z,86.51
2017-11-07T22:43:07.117Z,86.47
2017-11-07T22:45:34.800Z,87.11
2017-11-07T22:48:02.481Z,87.20
2017-11-07T22:50:30.151Z,87.08
2017-11-07T22:52:57.766Z,87.83
2017-11-07T22:55:25.380Z,87.37
2017-11-07T22:57:53.110Z,87.26
2017-11-07T23:00:20.739Z,88.01
2017-11-07T23:02:48.352Z,88.28
2017-11-07T23:05:16.026Z,87.58
2017-11-07T23:07:43.634Z,87.37
2017-11-07T23:10:11.247Z,87.37
2017-11-07T23:12:39.028Z,87.74
2017-11-07T23:15:06.689Z,87.93
2017-11-07T23:17:34.306Z,88.19
2017-11-07T23:20:02.036Z,88.69
2017-11-07T23:22:29.647Z,88.57
2017-11-07T23:24:57.276Z,88.53
2017-11-07T23:27:24.944Z,88.39
2017-11-07T23:29:52.563Z,88.42
2017-11-07T23:32:20.171Z,88.54
2017-11-07T23:37:28.913Z,89.01
2017-11-07T23:39:56.527Z,88.79
2017-11-07T23:42:24.639Z,89.03
2017-11-07T23:44:52.316Z,88.64
2017-11-07T23:47:19.926Z,88.66
2017-11-07T23:49:47.595Z,88.93
2017-11-07T23:52:15.260Z,88.83
2017-11-07T23:54:42.876Z,88.94
2017-11-07T23:57:10.561Z,88.90
2017-11-07T23:59:38.287Z,88.96
